ADDS METAR Data INFO
IDs: Format: Raw Decoded Include TAF

Data at: 0524 UTC 19 Jan 2018

KRKD 190456Z AUTO 28004KT 10SM CLR M12/M14 A2989 RMK AO2 SLP123 T11221139 410111128 FZRANO
KRKD 190356Z AUTO 00000KT 10SM CLR M12/M14 A2989 RMK AO2 SLPNO T11221139 FZRANO
KRKD 190156Z AUTO 00000KT 10SM CLR M09/M11 A2989 RMK AO2 SLPNO T10941106 FZRANO
KRKD 190056Z AUTO 00000KT 10SM CLR M09/M10 A2988 RMK AO2 SLPNO T10891100 FZRANO
KRKD 182356Z AUTO 00000KT 10SM CLR M09/M09 A2988 RMK AO2 SLPNO T10891094 11011 21094 53016 FZRANO
KRKD 182256Z AUTO 00000KT 9SM CLR M07/M08 A2985 RMK AO2 SLPNO T10721078 FZRANO
KRKD 182156Z AUTO 00000KT 10SM CLR M04/M08 A2985 RMK AO2 SLPNO T10441078 FZRANO
KRKD 182056Z AUTO VRB03KT 10SM CLR M02/M07 A2983 RMK AO2 SLPNO T10171072 55010 FZRANO
KRKD 181956Z AUTO VRB05KT 10SM FEW031 M01/M07 A2982 RMK AO2 SLPNO T10111072 FZRANO
KRKD 181856Z AUTO VRB04KT 10SM CLR M01/M07 A2985 RMK AO2 SLPNO T10111072 FZRANO
KRKD 181756Z AUTO VRB03KT 10SM CLR M02/M08 A2986 RMK AO2 SLPNO 6//// T10221078 FZRANO
KRKD 181656Z AUTO 30009KT 10SM CLR M02/M08 A2988 RMK AO2 SLPNO T10221083 FZRANO